Terminal Aerodrome Forecast
Issued by NWS Wilmington, OH

Home | Current Version | Previous Version | Text Only | Print | Product List | Glossary On
Versions: 1 2 3 4 5 6 7 8 9 10 11 12 13 14 15 16 17 18 19 20 21 22 23 24 25 26 27
000
FTUS41 KILN 220800 AAA
TAFCVG
TAF AMD
KCVG 220859Z 2209/2312 12006KT P6SM OVC045
     FM221100 12005KT P6SM VCSH SCT015 OVC045
     FM221500 12010KT P6SM FEW015 BKN035
     FM230400 13010KT P6SM -RA SCT012 BKN035
     FM230600 14010KT 3SM RA BR OVC008=

USA.gov is the U.S. government's official web portal to all federal, state and local government web resources and services.